Time;durP1;ratioP1;P1;durP2;ratioP2;P2;SDS_P1;SDS_P2;PMS_P1;PMS_P2;Temp;Humidity;BMP_temperature;BMP_pressure;BME280_temperature;BME280_humidity;BME280_pressure;Samples;Min_cycle;Max_cycle;Signal;HPM_P1;HPM_P2
2023/03/05 00:00:21;;;;;;;73.00;44.80;;;;;;;-2.17;66.26;100143.68;112773;1238;22468;-75
2023/03/05 00:03:12;;;;;;;70.40;44.30;;;;;;;-2.11;66.40;100137.27;113150;1238;22058;-77
2023/03/05 00:05:46;;;;;;;65.90;41.40;;;;;;;-2.04;66.52;100142.28;113177;1233;21999;-75
2023/03/05 00:08:24;;;;;;;;;;;;;;;-1.95;66.64;100149.02;113586;1232;22958;-75
2023/03/05 00:11:07;;;;;;;55.90;31.50;;;;;;;-1.94;66.83;100141.70;113389;1233;22076;-75
2023/03/05 00:13:38;;;;;;;59.90;36.30;;;;;;;-1.86;66.82;100140.58;113372;1234;21931;-75
2023/03/05 00:16:17;;;;;;;62.90;37.00;;;;;;;-1.78;66.95;100140.30;113509;1234;21979;-75
2023/03/05 00:18:49;;;;;;;56.60;36.10;;;;;;;-1.69;66.94;100137.15;113611;1233;23565;-76
2023/03/05 00:21:44;;;;;;;58.30;34.10;;;;;;;-1.61;66.79;100130.38;112481;1239;21948;-76
2023/03/05 00:24:18;;;;;;;56.60;34.10;;;;;;;-1.54;66.78;100130.61;112856;1240;23678;-78
2023/03/05 00:26:47;;;;;;;59.50;36.00;;;;;;;-1.49;66.73;100125.69;112807;1239;22482;-76
2023/03/05 00:29:21;;;;;;;58.80;35.10;;;;;;;-1.43;66.63;100122.50;112742;1240;21946;-75
2023/03/05 00:31:58;;;;;;;;;;;;;;;-1.41;66.62;100122.17;112537;1239;23656;-76
2023/03/05 00:34:35;;;;;;;58.10;31.80;;;;;;;-1.45;66.73;100118.21;112470;1239;21951;-75
2023/03/05 00:37:10;;;;;;;54.30;32.40;;;;;;;-1.44;66.67;100114.65;111874;1244;22995;-75
2023/03/05 00:39:43;;;;;;;54.70;33.80;;;;;;;-1.42;66.66;100109.02;112658;1238;23767;-77
2023/03/05 00:42:14;;;;;;;45.80;30.90;;;;;;;-1.38;66.58;100109.74;112302;1244;21982;-74
2023/03/05 00:44:46;;;;;;;50.60;32.80;;;;;;;-1.33;66.61;100113.19;112386;1244;21954;-74
2023/03/05 00:47:17;;;;;;;53.00;31.50;;;;;;;-1.28;66.51;100108.44;112310;1244;23662;-76
2023/03/05 00:49:48;;;;;;;57.50;35.20;;;;;;;-1.24;66.68;100105.23;112398;1244;24326;-75
2023/03/05 00:52:21;;;;;;;56.40;35.50;;;;;;;-1.19;66.61;100103.55;112088;1244;23600;-76
2023/03/05 00:54:56;;;;;;;64.30;42.00;;;;;;;-1.12;66.72;100096.41;111882;1246;21961;-76
2023/03/05 00:57:26;;;;;;;61.30;40.70;;;;;;;-1.05;66.74;100095.42;111603;1249;22232;-76
2023/03/05 00:59:58;;;;;;;56.20;37.30;;;;;;;-0.97;66.92;100088.98;111636;1243;21977;-77
2023/03/05 01:02:28;;;;;;;60.50;38.90;;;;;;;-0.89;66.95;100087.14;112325;1243;23004;-75
2023/03/05 01:05:00;;;;;;;48.40;31.30;;;;;;;-0.81;66.84;100083.41;112374;1243;22987;-76
2023/03/05 01:07:30;;;;;;;51.30;30.00;;;;;;;-0.76;66.64;100075.06;111731;1248;23015;-76
2023/03/05 01:10:07;;;;;;;49.20;30.70;;;;;;;-0.71;66.65;100075.26;111751;1249;23125;-76
2023/03/05 01:12:42;;;;;;;55.70;35.10;;;;;;;-0.68;66.55;100063.65;111876;1244;21949;-75
2023/03/05 01:15:20;;;;;;;49.70;33.80;;;;;;;-0.64;66.46;100063.65;112067;1237;23027;-76
2023/03/05 01:17:54;;;;;;;48.40;30.60;;;;;;;-0.59;66.53;100058.55;112059;1247;21963;-76
2023/03/05 01:20:28;;;;;;;45.30;29.60;;;;;;;-0.55;66.51;100057.36;112011;1247;22095;-75
2023/03/05 01:23:09;;;;;;;42.30;26.50;;;;;;;-0.50;66.49;100051.55;111951;1247;21994;-75
2023/03/05 01:25:44;;;;;;;47.10;26.60;;;;;;;-0.47;66.36;100048.83;111882;1244;22032;-75
2023/03/05 01:28:13;;;;;;;47.20;27.80;;;;;;;-0.45;66.39;100047.98;112257;1244;21967;-75
2023/03/05 01:30:42;;;;;;;48.90;29.60;;;;;;;-0.40;66.42;100044.39;112363;1243;23597;-76
2023/03/05 01:33:13;;;;;;;42.20;26.30;;;;;;;-0.35;66.33;100041.84;111947;1247;21972;-76
2023/03/05 01:35:52;;;;;;;34.60;19.80;;;;;;;-0.31;66.26;100038.61;112075;1244;22866;-76
2023/03/05 01:38:23;;;;;;;40.90;22.60;;;;;;;-0.27;66.20;100036.89;112479;1244;21938;-75
2023/03/05 01:40:53;;;;;;;34.90;20.80;;;;;;;-0.21;66.15;100034.85;111956;1243;23490;-77
2023/03/05 01:43:28;;;;;;;41.60;24.30;;;;;;;-0.15;66.13;100029.90;112281;1243;21952;-75
2023/03/05 01:46:33;;;;;;;37.30;21.60;;;;;;;-0.10;66.00;100028.87;112778;1243;21947;-76
2023/03/05 01:49:28;;;;;;;34.40;20.10;;;;;;;-0.06;65.89;100023.23;112696;1243;22165;-75
2023/03/05 01:52:16;;;;;;;34.70;21.00;;;;;;;-0.03;65.85;100017.59;112688;1238;22178;-75
2023/03/05 01:55:04;;;;;;;36.50;22.60;;;;;;;0.02;65.74;100009.54;113222;1238;21946;-76
2023/03/05 01:57:49;;;;;;;35.50;19.90;;;;;;;0.05;65.55;100006.97;112856;1238;22531;-77
2023/03/05 02:00:46;;;;;;;36.60;22.60;;;;;;;0.06;65.56;100007.14;113293;1232;22665;-74
2023/03/05 02:03:15;;;;;;;38.80;21.90;;;;;;;0.11;65.48;100006.64;113457;1233;21944;-75
2023/03/05 02:05:46;;;;;;;37.90;21.30;;;;;;;0.16;65.48;100004.58;113486;1233;23581;-76
2023/03/05 02:08:21;;;;;;;37.40;22.50;;;;;;;0.21;65.40;100002.35;113041;1238;23668;-75
2023/03/05 02:10:56;;;;;;;32.90;20.70;;;;;;;0.24;65.23;99999.94;112537;1239;21963;-76
2023/03/05 02:13:39;;;;;;;36.00;20.80;;;;;;;0.24;65.15;99999.44;112839;1239;22045;-75
2023/03/05 02:16:09;;;;;;;40.20;23.50;;;;;;;0.24;65.17;100000.80;112837;1239;24369;-76
2023/03/05 02:18:41;;;;;;;;;;;;;;;0.26;65.18;99997.21;112891;1235;22554;-75
2023/03/05 02:21:10;;;;;;;37.70;21.10;;;;;;;0.19;65.16;99993.45;112865;1239;21958;-75
2023/03/05 02:23:43;;;;;;;34.90;20.80;;;;;;;0.18;65.09;99992.94;112769;1239;23883;-75
2023/03/05 02:26:17;;;;;;;35.80;20.50;;;;;;;0.21;65.19;99991.55;112984;1233;22228;-75
2023/03/05 02:28:59;;;;;;;33.00;20.90;;;;;;;0.24;65.14;99987.63;113709;1232;23714;-75
2023/03/05 02:31:33;;;;;;;33.70;20.90;;;;;;;0.26;65.09;99986.25;113653;1233;22700;-76
2023/03/05 02:34:02;;;;;;;34.30;20.00;;;;;;;0.29;65.00;99984.36;113342;1233;23682;-76
2023/03/05 02:36:32;;;;;;;30.80;18.40;;;;;;;0.33;65.03;99983.33;113331;1233;22247;-76
2023/03/05 02:39:01;;;;;;;28.50;17.00;;;;;;;0.33;64.99;99984.35;113300;1232;21945;-75
2023/03/05 02:41:31;;;;;;;34.30;18.50;;;;;;;0.35;64.94;99982.13;112909;1239;23699;-75
2023/03/05 02:44:02;;;;;;;31.70;19.50;;;;;;;0.36;64.91;99977.84;112787;1239;21983;-76
2023/03/05 02:46:31;;;;;;;28.00;16.70;;;;;;;0.38;64.88;99979.21;112081;1245;23699;-76
2023/03/05 02:49:05;;;;;;;25.90;15.60;;;;;;;0.37;64.77;99980.23;112152;1245;21952;-75
2023/03/05 02:51:47;;;;;;;27.60;16.90;;;;;;;0.34;64.57;99977.86;111524;1249;22507;-75
2023/03/05 02:54:26;;;;;;;24.60;14.80;;;;;;;0.29;64.48;99975.80;111246;1254;22302;-76
2023/03/05 02:56:59;;;;;;;25.00;15.70;;;;;;;0.23;64.51;99974.97;111034;1254;21968;-76
2023/03/05 02:59:31;;;;;;;23.60;15.60;;;;;;;0.17;64.46;99974.80;111148;1250;21965;-77
2023/03/05 03:02:06;;;;;;;29.20;17.00;;;;;;;0.11;64.69;99975.48;109799;1251;2088289;-75
2023/03/05 03:04:37;;;;;;;24.10;15.90;;;;;;;0.05;64.72;99973.79;111875;1245;23051;-75
2023/03/05 03:07:14;;;;;;;27.50;16.80;;;;;;;-0.03;64.67;99972.26;112163;1245;21948;-75
2023/03/05 03:09:47;;;;;;;25.60;15.40;;;;;;;-0.10;64.69;99969.52;112010;1242;24294;-75
2023/03/05 03:12:16;;;;;;;31.90;16.70;;;;;;;-0.18;64.71;99967.13;112746;1239;21951;-76
2023/03/05 03:14:44;;;;;;;26.20;16.00;;;;;;;-0.22;64.77;99964.39;111863;1245;21953;-75
2023/03/05 03:17:17;;;;;;;24.10;16.20;;;;;;;-0.26;64.81;99961.99;112195;1245;21959;-76
2023/03/05 03:19:49;;;;;;;26.40;15.60;;;;;;;-0.31;64.93;99962.33;112017;1242;23031;-75
2023/03/05 03:22:18;;;;;;;33.20;20.80;;;;;;;-0.34;64.95;99954.81;111222;1252;23033;-75
2023/03/05 03:24:47;;;;;;;36.20;21.10;;;;;;;-0.37;65.08;99956.00;111426;1252;21968;-77
2023/03/05 03:27:15;;;;;;;35.40;20.60;;;;;;;-0.41;65.14;99953.61;111339;1248;21989;-75
2023/03/05 03:29:44;;;;;;;31.20;19.50;;;;;;;-0.43;65.09;99947.11;111479;1248;21963;-75
2023/03/05 03:32:15;;;;;;;34.70;19.60;;;;;;;-0.45;65.02;99942.67;112009;1240;21957;-74
2023/03/05 03:34:47;;;;;;;28.60;18.40;;;;;;;-0.49;65.05;99937.54;112387;1239;22714;-75
2023/03/05 03:37:19;;;;;;;31.40;19.60;;;;;;;-0.52;65.15;99936.52;112391;1235;23047;-75
2023/03/05 03:39:47;;;;;;;25.40;16.70;;;;;;;-0.55;65.20;99935.30;112437;1241;21964;-74
2023/03/05 03:42:23;;;;;;;26.10;15.60;;;;;;;-0.57;65.23;99934.80;112810;1240;21960;-75
2023/03/05 03:44:51;;;;;;;23.40;16.40;;;;;;;-0.59;65.13;99931.20;112619;1241;21955;-75
2023/03/05 03:47:23;;;;;;;;;;;;;;;-0.63;65.22;99926.08;113058;1233;22035;-75
2023/03/05 03:49:57;;;;;;;29.00;13.90;;;;;;;-0.72;65.25;99928.27;113591;1233;22149;-76
2023/03/05 03:52:32;;;;;;;27.00;15.10;;;;;;;-0.77;65.34;99926.05;113421;1233;21932;-75
2023/03/05 03:55:05;;;;;;;23.90;14.60;;;;;;;-0.75;65.50;99921.27;113476;1233;23816;-74
2023/03/05 03:57:35;;;;;;;28.10;14.60;;;;;;;-0.72;65.56;99914.79;112827;1239;21949;-75
2023/03/05 04:00:06;;;;;;;23.60;13.80;;;;;;;-0.67;65.67;99914.95;112845;1239;23005;-75
2023/03/05 04:02:40;;;;;;;23.80;13.20;;;;;;;-0.62;65.70;99912.23;112325;1244;21910;-75
2023/03/05 04:05:11;;;;;;;25.10;12.70;;;;;;;-0.57;65.81;99910.70;112393;1244;21951;-75
2023/03/05 04:07:44;;;;;;;22.00;13.20;;;;;;;-0.51;65.87;99899.75;112309;1243;21984;-75
2023/03/05 04:10:16;;;;;;;20.90;13.20;;;;;;;-0.46;65.93;99901.46;112149;1243;22204;-76
2023/03/05 04:12:48;;;;;;;21.80;13.20;;;;;;;-0.39;66.15;99897.70;111673;1248;23012;-75
2023/03/05 04:15:19;;;;;;;19.70;12.80;;;;;;;-0.34;65.93;99888.64;112063;1244;23037;-74
2023/03/05 04:17:51;;;;;;;;;;;;;;;-0.29;65.90;99889.67;112098;1244;22000;-75
2023/03/05 04:20:20;;;;;;;18.30;10.90;;;;;;;-0.32;65.99;99886.92;112380;1243;23650;-75
2023/03/05 04:22:49;;;;;;;23.10;13.00;;;;;;;-0.32;66.01;99882.48;112375;1244;21980;-75
2023/03/05 04:25:20;;;;;;;24.50;12.60;;;;;;;-0.26;65.90;99881.45;111709;1248;22420;-74
2023/03/05 04:27:55;;;;;;;24.10;13.80;;;;;;;-0.22;65.86;99878.02;111729;1250;21966;-76
2023/03/05 04:30:25;;;;;;;23.70;13.70;;;;;;;-0.17;65.79;99869.30;111308;1250;21957;-75
2023/03/05 04:32:56;;;;;;;23.50;14.60;;;;;;;-0.14;65.77;99864.50;111474;1249;22004;-73
2023/03/05 04:35:26;;;;;;;23.90;16.60;;;;;;;-0.13;65.69;99860.74;111163;1254;23734;-74
2023/03/05 04:37:56;;;;;;;31.90;18.20;;;;;;;-0.15;65.69;99857.83;111147;1255;21999;-75
2023/03/05 04:40:29;;;;;;;36.60;23.10;;;;;;;-0.15;65.55;99861.77;111298;1253;21994;-76
2023/03/05 04:42:58;;;;;;;40.60;24.80;;;;;;;-0.16;65.37;99855.44;111222;1249;21955;-75
2023/03/05 04:45:33;;;;;;;37.80;24.80;;;;;;;-0.17;65.39;99851.85;111829;1245;22039;-76
2023/03/05 04:48:02;;;;;;;45.00;31.90;;;;;;;-0.14;65.57;99848.27;112275;1239;21974;-76
2023/03/05 04:50:34;;;;;;;249.20;121.80;;;;;;;-0.12;65.60;99845.50;112797;1239;22196;-75
2023/03/05 04:53:06;;;;;;;215.00;111.80;;;;;;;-0.10;65.52;99846.70;112870;1233;23726;-76
2023/03/05 04:55:39;;;;;;;41.90;26.50;;;;;;;-0.07;65.55;99843.27;113003;1239;22425;-76
2023/03/05 04:58:10;;;;;;;40.80;23.60;;;;;;;-0.05;65.50;99837.63;112992;1239;21971;-76
2023/03/05 05:00:42;;;;;;;38.30;20.90;;;;;;;-0.04;65.49;99841.73;112048;1245;24138;-76
2023/03/05 05:03:12;;;;;;;30.30;19.60;;;;;;;-0.01;65.42;99838.98;112102;1245;23021;-75
2023/03/05 05:05:58;;;;;;;40.30;25.70;;;;;;;-0.02;65.37;99841.55;112271;1245;21962;-76
2023/03/05 05:08:32;;;;;;;28.90;17.90;;;;;;;-0.02;65.36;99838.81;112321;1245;23024;-76
2023/03/05 05:11:04;;;;;;;;;;;;;;;-0.01;65.45;99837.62;111365;1250;21984;-77
2023/03/05 05:13:43;;;;;;;33.70;15.30;;;;;;;-0.07;65.50;99837.98;111673;1245;24350;-76
2023/03/05 05:16:23;;;;;;;26.50;14.90;;;;;;;-0.06;65.67;99830.61;112183;1245;21939;-77
2023/03/05 05:18:58;;;;;;;40.60;28.70;;;;;;;-0.04;65.66;99833.17;112529;1239;21985;-76
2023/03/05 05:21:27;;;;;;;55.30;33.10;;;;;;;0.01;65.57;99825.98;112985;1239;21951;-76
2023/03/05 05:23:56;;;;;;;52.90;43.70;;;;;;;0.06;65.46;99826.48;112897;1239;22008;-76
2023/03/05 05:26:30;;;;;;;82.50;66.80;;;;;;;0.07;65.37;99825.10;112354;1243;21986;-76
2023/03/05 05:28:59;;;;;;;29.40;25.70;;;;;;;0.08;65.52;99825.95;111874;1244;21958;-75
2023/03/05 05:31:35;;;;;;;25.20;16.90;;;;;;;0.10;65.43;99823.73;112272;1244;21964;-76
2023/03/05 05:34:07;;;;;;;22.50;13.80;;;;;;;0.09;65.34;99822.36;112115;1244;21962;-76
2023/03/05 05:36:42;;;;;;;19.40;11.60;;;;;;;0.08;65.23;99825.44;112263;1244;22840;-75
2023/03/05 05:39:11;;;;;;;19.70;12.70;;;;;;;0.07;65.21;99825.77;112398;1243;23009;-75
2023/03/05 05:41:40;;;;;;;20.30;11.40;;;;;;;0.06;65.19;99819.28;112031;1244;22996;-74
2023/03/05 05:44:09;;;;;;;20.00;12.00;;;;;;;0.08;65.19;99818.08;112177;1239;22610;-75
2023/03/05 05:46:38;;;;;;;19.40;10.80;;;;;;;0.07;65.15;99819.27;112230;1244;22468;-74
2023/03/05 05:49:10;;;;;;;18.30;11.50;;;;;;;0.11;65.24;99817.05;112062;1244;23616;-75
2023/03/05 05:51:39;;;;;;;20.50;10.90;;;;;;;0.14;65.12;99811.39;112010;1244;23613;-77
2023/03/05 05:54:15;;;;;;;17.90;10.70;;;;;;;0.16;65.04;99813.27;112527;1238;24531;-74
2023/03/05 05:56:44;;;;;;;16.20;10.80;;;;;;;0.18;65.01;99812.23;112765;1239;22697;-75
2023/03/05 05:59:15;;;;;;;18.80;14.80;;;;;;;0.20;65.06;99808.62;112784;1238;21970;-75
2023/03/05 06:01:44;;;;;;;185.90;97.50;;;;;;;0.22;65.00;99805.35;111999;1246;22072;-75
2023/03/05 06:04:13;;;;;;;29.70;19.50;;;;;;;0.24;64.80;99805.35;112319;1241;21979;-75
2023/03/05 06:06:45;;;;;;;;;;;;;;;0.25;64.80;99796.79;112555;1241;23009;-75
2023/03/05 06:09:19;;;;;;;38.60;26.40;;;;;;;0.19;64.97;99797.50;112259;1245;22705;-76
2023/03/05 06:11:50;;;;;;;60.10;49.50;;;;;;;0.18;64.90;99798.02;112035;1245;23695;-74
2023/03/05 06:14:23;;;;;;;30.60;27.30;;;;;;;0.19;64.85;99793.91;111363;1249;23329;-76
2023/03/05 06:17:06;;;;;;;14.60;12.90;;;;;;;0.20;64.65;99792.20;111523;1249;21955;-75
2023/03/05 06:19:42;;;;;;;19.10;9.30;;;;;;;0.24;64.72;99791.50;111287;1249;24410;-75
2023/03/05 06:22:21;;;;;;;16.40;8.80;;;;;;;0.27;64.50;99791.65;111414;1249;21968;-74
2023/03/05 06:24:52;;;;;;;11.70;8.10;;;;;;;0.30;64.33;99787.87;111554;1249;21991;-75
2023/03/05 06:27:29;;;;;;;26.70;16.50;;;;;;;0.33;64.34;99786.48;111937;1243;22048;-72
2023/03/05 06:30:11;;;;;;;90.30;66.20;;;;;;;0.36;64.15;99780.31;112207;1243;22325;-74
2023/03/05 06:33:05;;;;;;;145.00;111.00;;;;;;;0.37;64.02;99778.94;112295;1239;23101;-77
2023/03/05 06:35:39;;;;;;;50.50;43.90;;;;;;;0.36;63.83;99777.23;112877;1239;23018;-77
2023/03/05 06:38:15;;;;;;;23.40;20.60;;;;;;;0.36;63.81;99773.63;112417;1241;23743;-76
2023/03/05 06:40:45;;;;;;;14.40;10.50;;;;;;;0.38;63.77;99771.05;112570;1241;21973;-76
2023/03/05 06:43:21;;;;;;;13.60;8.20;;;;;;;0.42;63.68;99770.69;112014;1246;21967;-76
2023/03/05 06:46:07;;;;;;;16.60;10.50;;;;;;;0.46;63.60;99768.10;111792;1244;22014;-75
2023/03/05 06:48:46;;;;;;;19.20;11.40;;;;;;;0.49;63.57;99767.58;112202;1246;23723;-76
2023/03/05 06:51:27;;;;;;;19.70;11.50;;;;;;;0.52;63.40;99765.83;111747;1246;21981;-75
2023/03/05 06:54:12;;;;;;;23.30;13.30;;;;;;;0.56;63.46;99763.92;111884;1246;21948;-74
2023/03/05 06:56:46;;;;;;;19.10;12.20;;;;;;;0.57;63.39;99763.92;112510;1239;21942;-75
2023/03/05 06:59:18;;;;;;;15.60;10.50;;;;;;;0.63;63.46;99760.46;113181;1239;21951;-77
2023/03/05 07:02:00;;;;;;;17.50;10.60;;;;;;;0.67;63.46;99754.27;112562;1239;21999;-77
2023/03/05 07:04:38;;;;;;;16.70;9.20;;;;;;;0.74;63.50;99751.30;112670;1232;23094;-76
2023/03/05 07:07:07;;;;;;;12.10;7.40;;;;;;;0.80;63.31;99749.89;112600;1238;21942;-75
2023/03/05 07:09:41;;;;;;;16.30;9.80;;;;;;;0.84;63.18;99749.35;111987;1245;21948;-76
2023/03/05 07:12:25;;;;;;;16.40;11.30;;;;;;;0.84;63.16;99751.91;112106;1245;21967;-75
2023/03/05 07:15:10;;;;;;;17.40;11.10;;;;;;;0.82;63.04;99748.16;112063;1245;21987;-75
2023/03/05 07:17:47;;;;;;;13.50;9.40;;;;;;;0.79;63.01;99750.58;112136;1245;22352;-76
2023/03/05 07:20:18;;;;;;;17.30;8.70;;;;;;;0.78;63.06;99749.38;112221;1239;22216;-75
2023/03/05 07:23:03;;;;;;;14.60;8.10;;;;;;;0.77;63.06;99745.46;112864;1239;21932;-75
2023/03/05 07:25:44;;;;;;;15.70;8.50;;;;;;;0.77;63.14;99744.77;112669;1239;23082;-75
2023/03/05 07:28:18;;;;;;;18.40;11.00;;;;;;;0.76;63.12;99743.91;112967;1239;23862;-75
2023/03/05 07:31:01;;;;;;;20.30;10.30;;;;;;;0.78;63.22;99740.30;112798;1239;23047;-75
2023/03/05 07:33:38;;;;;;;17.20;10.70;;;;;;;0.80;63.34;99734.48;112843;1233;21948;-76
2023/03/05 07:36:13;;;;;;;19.10;10.50;;;;;;;0.83;63.41;99735.98;113270;1233;23763;-77
2023/03/05 07:38:45;;;;;;;18.00;11.90;;;;;;;0.86;63.43;99736.14;113514;1233;22066;-75
2023/03/05 07:41:22;;;;;;;16.90;8.80;;;;;;;0.89;63.50;99729.27;113437;1233;21952;-75
2023/03/05 07:43:56;;;;;;;15.20;10.30;;;;;;;0.90;63.36;99732.00;113575;1232;21976;-74
2023/03/05 07:46:32;;;;;;;16.90;10.30;;;;;;;0.90;63.47;99730.28;113132;1233;23649;-76
2023/03/05 07:49:01;;;;;;;16.90;11.40;;;;;;;0.91;63.68;99728.56;113400;1233;23793;-74
2023/03/05 07:51:34;;;;;;;18.40;11.90;;;;;;;0.94;63.89;99723.58;113278;1233;22090;-74
2023/03/05 07:54:06;;;;;;;15.50;9.40;;;;;;;1.00;64.12;99720.60;112491;1238;23750;-75
2023/03/05 07:56:47;;;;;;;15.20;10.50;;;;;;;1.08;64.19;99717.10;112776;1239;21941;-73
2023/03/05 07:59:28;;;;;;;9.60;8.10;;;;;;;1.11;64.28;99719.13;112623;1239;22387;-76
2023/03/05 08:02:05;;;;;;;14.30;9.80;;;;;;;1.12;64.19;99721.18;112151;1245;21952;-76
2023/03/05 08:04:37;;;;;;;12.70;8.60;;;;;;;1.15;64.39;99720.98;112082;1245;22231;-78
2023/03/05 08:07:10;;;;;;;15.60;10.30;;;;;;;1.15;64.49;99719.09;112100;1245;21987;-78
2023/03/05 08:10:07;;;;;;;22.70;15.50;;;;;;;1.15;64.64;99718.41;112112;1245;21951;-78
2023/03/05 08:13:00;;;;;;;25.90;18.80;;;;;;;1.15;64.73;99718.57;112492;1239;21969;-75
2023/03/05 08:15:38;;;;;;;50.20;39.80;;;;;;;1.18;65.16;99716.48;112252;1239;22813;-77
2023/03/05 08:18:17;;;;;;;28.80;23.10;;;;;;;1.22;65.18;99710.64;112622;1239;22578;-75
2023/03/05 08:20:47;;;;;;;22.40;17.00;;;;;;;1.18;65.19;99708.27;113184;1233;21938;-75
2023/03/05 08:23:24;;;;;;;22.00;18.00;;;;;;;1.16;65.34;99709.50;113327;1233;22004;-75
2023/03/05 08:25:54;;;;;;;28.30;20.60;;;;;;;1.19;65.62;99707.23;113323;1232;21960;-76
2023/03/05 08:28:25;;;;;;;;;;;;;;;1.18;65.55;99702.27;113291;1233;23791;-76
2023/03/05 08:30:55;;;;;;;25.10;18.50;;;;;;;1.05;65.72;99700.51;113440;1233;21952;-74
2023/03/05 08:33:31;;;;;;;34.50;22.10;;;;;;;1.02;65.93;99698.14;113475;1233;21939;-75
2023/03/05 08:36:13;;;;;;;43.50;37.20;;;;;;;1.06;66.29;99695.52;113594;1225;21935;-75
2023/03/05 08:38:52;;;;;;;38.00;28.50;;;;;;;1.11;66.52;99687.61;113504;1233;23671;-75
2023/03/05 08:41:22;;;;;;;59.50;39.70;;;;;;;1.20;67.01;99684.59;113288;1233;21955;-75
2023/03/05 08:43:58;;;;;;;36.80;26.80;;;;;;;1.34;67.51;99682.22;112810;1239;22432;-75
2023/03/05 08:46:30;;;;;;;38.90;30.80;;;;;;;1.44;67.50;99679.37;112567;1239;22727;-75
2023/03/05 08:49:06;;;;;;;37.10;26.70;;;;;;;1.47;67.10;99677.95;112772;1239;21933;-74
2023/03/05 08:51:35;;;;;;;37.60;32.50;;;;;;;1.42;66.87;99672.88;112201;1244;22093;-74
2023/03/05 08:54:09;;;;;;;35.60;32.00;;;;;;;1.37;67.04;99671.89;111957;1244;23041;-75
2023/03/05 08:56:40;;;;;;;25.90;21.00;;;;;;;1.32;67.02;99666.31;111844;1244;21963;-77
2023/03/05 08:59:13;;;;;;;56.10;48.60;;;;;;;1.28;67.22;99668.92;112094;1244;23671;-75
2023/03/05 09:01:48;;;;;;;;;;;;;;;1.26;67.51;99667.05;112474;1239;23008;-76
2023/03/05 09:04:24;;;;;;;48.90;32.90;;;;;;;1.21;68.02;99667.96;112728;1239;22538;-75
2023/03/05 09:07:04;;;;;;;42.80;28.10;;;;;;;1.26;68.46;99670.98;112784;1239;24300;-75
2023/03/05 09:09:41;;;;;;;20.60;14.00;;;;;;;1.37;68.82;99670.55;113071;1232;22409;-74
2023/03/05 09:12:14;;;;;;;22.50;14.20;;;;;;;1.45;68.98;99669.58;113416;1232;22146;-74
2023/03/05 09:15:03;;;;;;;19.90;12.20;;;;;;;1.50;68.90;99676.38;112563;1238;21945;-75
2023/03/05 09:17:43;;;;;;;19.70;9.50;;;;;;;1.52;68.71;99680.98;112849;1239;21954;-75
2023/03/05 09:20:17;;;;;;;16.80;10.10;;;;;;;1.51;68.66;99684.25;113111;1238;21983;-75
2023/03/05 09:22:57;;;;;;;17.70;10.30;;;;;;;1.52;68.77;99688.18;112881;1239;23025;-78
2023/03/05 09:25:33;;;;;;;20.00;10.80;;;;;;;1.57;68.82;99686.42;113011;1239;21949;-77
2023/03/05 09:28:06;;;;;;;18.80;9.20;;;;;;;1.61;68.70;99690.67;113218;1239;21944;-75
2023/03/05 09:30:44;;;;;;;18.50;9.30;;;;;;;1.58;68.53;99688.46;112793;1238;21962;-75
2023/03/05 09:33:13;;;;;;;16.70;8.60;;;;;;;1.53;68.43;99684.75;113198;1232;21951;-75
2023/03/05 09:35:47;;;;;;;21.40;11.80;;;;;;;1.50;68.46;99684.27;113115;1233;21966;-78
2023/03/05 09:38:27;;;;;;;16.00;9.10;;;;;;;1.50;68.62;99686.16;113622;1232;21942;-76
2023/03/05 09:41:16;;;;;;;20.20;10.60;;;;;;;1.48;68.64;99687.04;113402;1233;23852;-74
2023/03/05 09:44:55;;;;;;;21.40;10.20;;;;;;;1.46;68.77;99688.44;113515;1232;21951;-75
2023/03/05 09:47:48;;;;;;;15.50;7.80;;;;;;;1.43;68.83;99682.46;112636;1241;21974;-75
2023/03/05 09:50:35;;;;;;;16.50;9.80;;;;;;;1.41;68.87;99685.91;112832;1241;21957;-74
2023/03/05 09:53:27;;;;;;;19.60;10.20;;;;;;;1.46;68.98;99686.55;112515;1241;22980;-75
2023/03/05 09:56:11;;;;;;;20.10;10.90;;;;;;;1.52;69.03;99688.02;111932;1247;21965;-79
2023/03/05 09:58:50;;;;;;;21.30;10.20;;;;;;;1.52;68.77;99686.13;111938;1247;22151;-78
2023/03/05 10:01:40;;;;;;;22.40;10.80;;;;;;;1.51;68.80;99687.50;111202;1251;23623;-77
2023/03/05 10:04:24;;;;;;;25.10;12.80;;;;;;;1.49;68.66;99684.79;111663;1250;21977;-76
2023/03/05 10:07:07;;;;;;;16.90;9.80;;;;;;;1.52;69.03;99684.93;111464;1250;23551;-75
2023/03/05 10:09:55;;;;;;;15.90;8.40;;;;;;;1.55;69.00;99682.31;111622;1243;23015;-74
2023/03/05 10:12:50;;;;;;;15.40;8.20;;;;;;;1.62;69.04;99678.81;110921;1256;22015;-76
2023/03/05 10:16:24;;;;;;;14.50;7.90;;;;;;;1.67;68.96;99680.29;111450;1250;23802;-75
2023/03/05 10:19:24;;;;;;;20.60;9.00;;;;;;;1.68;68.68;99675.65;112477;1239;22085;-76
2023/03/05 10:23:05;;;;;;;18.80;9.10;;;;;;;1.69;68.59;99677.02;113131;1239;23681;-76
2023/03/05 10:26:03;;;;;;;15.80;7.20;;;;;;;1.69;68.35;99675.98;112544;1244;21982;-76
2023/03/05 10:28:56;;;;;;;25.60;10.20;;;;;;;1.69;68.34;99673.58;112315;1244;21957;-75
2023/03/05 10:31:51;;;;;;;20.00;10.00;;;;;;;1.82;68.39;99672.39;112953;1239;22700;-77
2023/03/05 10:35:05;;;;;;;17.30;9.90;;;;;;;1.91;68.15;99668.48;112906;1239;22433;-75
2023/03/05 10:37:52;;;;;;;15.30;8.20;;;;;;;2.03;68.01;99661.81;113238;1239;22970;-76
2023/03/05 10:40:50;;;;;;;19.10;8.30;;;;;;;2.16;67.75;99658.71;112845;1239;21956;-76
2023/03/05 10:44:01;;;;;;;15.90;8.70;;;;;;;2.33;67.71;99658.80;113254;1237;24302;-77
2023/03/05 10:47:51;;;;;;;16.90;9.80;;;;;;;2.47;67.10;99653.95;113125;1239;23005;-75
2023/03/05 10:50:27;;;;;;;16.50;8.90;;;;;;;2.52;66.51;99649.92;113233;1239;22949;-75
2023/03/05 10:53:53;;;;;;;18.30;9.20;;;;;;;2.50;65.78;99648.75;112575;1239;21958;-76
2023/03/05 10:56:28;;;;;;;16.90;8.80;;;;;;;2.33;65.26;99651.08;112199;1246;21951;-76
2023/03/05 10:58:59;;;;;;;20.10;9.20;;;;;;;2.22;65.11;99649.02;112287;1242;24292;-75
2023/03/05 11:01:36;;;;;;;15.80;8.20;;;;;;;2.19;65.30;99649.05;112335;1242;21948;-75
2023/03/05 11:04:53;;;;;;;18.80;8.20;;;;;;;2.20;65.29;99646.80;112424;1242;23109;-75
2023/03/05 11:07:40;;;;;;;15.00;7.20;;;;;;;2.24;65.48;99647.44;112329;1245;21980;-75
2023/03/05 11:10:22;;;;;;;21.90;8.70;;;;;;;2.28;65.36;99643.26;111545;1252;23770;-75
2023/03/05 11:12:55;;;;;;;20.40;9.80;;;;;;;2.32;65.00;99642.16;111555;1252;22345;-75
2023/03/05 11:15:29;;;;;;;15.10;7.70;;;;;;;2.28;64.69;99639.64;110949;1256;21977;-74
2023/03/05 11:18:21;;;;;;;17.10;8.20;;;;;;;2.27;64.79;99642.59;111145;1256;22443;-76
2023/03/05 11:20:50;;;;;;;22.20;9.90;;;;;;;2.32;64.87;99635.98;111164;1256;21933;-76
2023/03/05 11:23:27;;;;;;;18.20;9.00;;;;;;;2.49;65.37;99635.54;110891;1256;23031;-77
2023/03/05 11:26:11;;;;;;;21.40;7.90;;;;;;;2.76;65.75;99636.80;111319;1252;23661;-76
2023/03/05 11:28:55;;;;;;;11.90;6.60;;;;;;;2.96;64.82;99636.98;111706;1246;21979;-75
2023/03/05 11:31:32;;;;;;;12.60;5.90;;;;;;;2.93;63.83;99632.21;112200;1239;22725;-77
2023/03/05 11:34:18;;;;;;;16.10;6.40;;;;;;;2.85;63.54;99632.01;113507;1233;21990;-78
2023/03/05 11:36:56;;;;;;;17.40;7.80;;;;;;;2.89;63.78;99632.27;113755;1226;22790;-77
2023/03/05 11:39:37;;;;;;;100.80;73.60;;;;;;;2.95;63.39;99630.98;113625;1233;21938;-78
2023/03/05 11:42:15;;;;;;;18.10;9.40;;;;;;;2.99;63.23;99625.05;113252;1233;22040;-76
2023/03/05 11:44:54;;;;;;;15.70;7.60;;;;;;;3.05;62.73;99626.48;113381;1233;23599;-77
2023/03/05 11:47:47;;;;;;;14.40;7.40;;;;;;;3.04;62.14;99623.41;113056;1239;23728;-78
2023/03/05 11:50:23;;;;;;;15.70;6.40;;;;;;;3.11;62.47;99621.91;112360;1244;22949;-76
2023/03/05 11:53:19;;;;;;;13.70;5.90;;;;;;;3.36;62.74;99616.95;112381;1244;21963;-77
2023/03/05 11:56:09;;;;;;;;;;;;;;;;;;;;;
2023/03/05 11:58:46;;;;;;;11.30;6.00;;;;;;;3.82;61.45;99608.59;112365;1244;21966;-77
2023/03/05 12:01:23;;;;;;;13.30;6.00;;;;;;;3.87;60.44;99606.94;111729;1249;22973;-75
2023/03/05 12:04:07;;;;;;;13.20;7.20;;;;;;;3.97;60.34;99604.98;111628;1249;21984;-77
2023/03/05 12:07:01;;;;;;;15.00;7.60;;;;;;;4.05;59.49;99603.78;111366;1252;21969;-74